Time;durP1;ratioP1;P1;durP2;ratioP2;P2;SDS_P1;SDS_P2;PMS_P1;PMS_P2;Temp;Humidity;BMP_temperature;BMP_pressure;BME280_temperature;BME280_humidity;BME280_pressure;Samples;Min_cycle;Max_cycle;Signal;HPM_P1;HPM_P2
2021/11/19 00:00:13;;;;;;;1.60;1.20;;;10.10;98.20;;;;;;4889323;29;20842;-76
2021/11/19 00:02:40;;;;;;;1.60;1.20;;;10.10;98.20;;;;;;4891343;29;20523;-76
2021/11/19 00:05:08;;;;;;;1.60;1.20;;;10.10;98.20;;;;;;4890508;29;20477;-76
2021/11/19 00:07:35;;;;;;;1.60;1.13;;;10.10;98.20;;;;;;4893994;29;20493;-76
2021/11/19 00:10:04;;;;;;;1.60;1.20;;;10.10;98.20;;;;;;4890563;29;20741;-76
2021/11/19 00:12:31;;;;;;;1.60;1.17;;;10.10;98.20;;;;;;4893752;29;20490;-76
2021/11/19 00:14:57;;;;;;;1.60;1.20;;;10.10;98.20;;;;;;4891560;29;20505;-76
2021/11/19 00:17:26;;;;;;;1.60;1.10;;;10.10;98.20;;;;;;4878372;29;20808;-77
2021/11/19 00:19:52;;;;;;;1.60;1.20;;;10.10;98.20;;;;;;4891648;29;20465;-77
2021/11/19 00:22:21;;;;;;;1.60;1.10;;;10.10;98.20;;;;;;4893676;29;20524;-77
2021/11/19 00:24:48;;;;;;;1.60;1.20;;;10.20;98.20;;;;;;4891365;29;20481;-76
2021/11/19 00:27:18;;;;;;;1.60;1.20;;;10.20;98.20;;;;;;4881666;29;20473;-76
2021/11/19 00:29:45;;;;;;;1.60;1.20;;;10.10;98.20;;;;;;4892830;29;20529;-76
2021/11/19 00:32:13;;;;;;;1.60;1.20;;;10.20;98.20;;;;;;4893929;29;20881;-76
2021/11/19 00:34:42;;;;;;;2.40;2.20;;;10.20;98.20;;;;;;4893859;29;20476;-76
2021/11/19 00:37:10;;;;;;;1.60;1.10;;;10.20;98.20;;;;;;4894597;29;20492;-76
2021/11/19 00:39:37;;;;;;;1.60;1.10;;;10.20;98.20;;;;;;4894364;29;20469;-76
2021/11/19 00:42:06;;;;;;;1.60;1.30;;;10.20;98.20;;;;;;4894076;29;21005;-76
2021/11/19 00:44:34;;;;;;;1.60;1.20;;;10.20;98.20;;;;;;4890980;29;20465;-77
2021/11/19 00:47:01;;;;;;;1.60;1.20;;;10.20;98.20;;;;;;4883477;29;20466;-75
2021/11/19 00:49:31;;;;;;;1.60;1.10;;;10.20;98.20;;;;;;4893331;29;20500;-77
2021/11/19 00:52:02;;;;;;;1.60;1.20;;;10.20;98.20;;;;;;4894080;29;20521;-76
2021/11/19 00:54:29;;;;;;;1.60;1.20;;;10.20;98.20;;;;;;4893022;29;20523;-77
2021/11/19 00:57:00;;;;;;;1.60;1.20;;;10.20;98.20;;;;;;4889810;29;20477;-76
2021/11/19 00:59:28;;;;;;;1.60;1.10;;;10.20;98.20;;;;;;4890840;29;21203;-76
2021/11/19 01:01:59;;;;;;;1.60;1.10;;;10.20;98.20;;;;;;4893030;29;20524;-76
2021/11/19 01:04:26;;;;;;;1.60;1.20;;;10.20;98.20;;;;;;4885649;29;20470;-76
2021/11/19 01:06:53;;;;;;;1.60;1.10;;;10.20;98.20;;;;;;4877501;29;20478;-76
2021/11/19 01:09:25;;;;;;;1.60;1.10;;;10.20;98.20;;;;;;4882704;29;20868;-76
2021/11/19 01:11:54;;;;;;;1.60;1.20;;;10.20;98.20;;;;;;4882227;29;20470;-76
2021/11/19 01:14:23;;;;;;;1.60;1.10;;;10.20;98.20;;;;;;4888603;29;20470;-76
2021/11/19 01:16:55;;;;;;;1.60;1.30;;;10.20;98.20;;;;;;4881659;29;20887;-76
2021/11/19 01:19:27;;;;;;;1.60;1.20;;;10.20;98.20;;;;;;4883314;29;20470;-76
2021/11/19 01:21:57;;;;;;;1.60;1.20;;;10.20;98.20;;;;;;4891141;29;20492;-76
2021/11/19 01:24:26;;;;;;;1.60;1.10;;;10.20;98.20;;;;;;4895767;29;20488;-76
2021/11/19 01:26:53;;;;;;;1.60;1.20;;;10.20;98.20;;;;;;4888746;29;20562;-76
2021/11/19 01:29:21;;;;;;;1.60;1.20;;;10.20;98.20;;;;;;4886794;29;20497;-76
2021/11/19 01:31:52;;;;;;;1.60;1.10;;;10.20;98.20;;;;;;4890496;29;20499;-76
2021/11/19 01:34:19;;;;;;;1.60;1.10;;;10.20;98.20;;;;;;4886775;29;20841;-76
2021/11/19 01:36:46;;;;;;;1.60;1.30;;;10.20;98.20;;;;;;4884747;29;20465;-76
2021/11/19 01:39:26;;;;;;;1.60;1.20;;;10.30;98.20;;;;;;4882913;29;20957;-76
2021/11/19 01:41:56;;;;;;;1.60;1.10;;;10.30;98.20;;;;;;4895654;29;20465;-76
2021/11/19 01:44:26;;;;;;;1.60;1.17;;;10.30;98.20;;;;;;4882015;29;20561;-76
2021/11/19 01:46:54;;;;;;;1.60;1.20;;;10.30;98.20;;;;;;4888554;29;20469;-76
2021/11/19 01:49:23;;;;;;;1.60;1.20;;;10.30;98.20;;;;;;4896125;29;20481;-76
2021/11/19 01:51:55;;;;;;;1.60;1.20;;;10.30;98.20;;;;;;4891800;29;20480;-76
2021/11/19 01:54:25;;;;;;;1.60;1.10;;;10.30;98.20;;;;;;4892327;29;20486;-76
2021/11/19 01:56:58;;;;;;;1.60;1.20;;;10.30;98.20;;;;;;4884448;29;20469;-76
2021/11/19 01:59:29;;;;;;;1.60;1.10;;;10.30;98.20;;;;;;4887215;29;20462;-74
2021/11/19 02:01:58;;;;;;;1.60;1.20;;;10.30;98.20;;;;;;4887543;29;20509;-74
2021/11/19 02:04:28;;;;;;;1.60;1.20;;;10.30;98.20;;;;;;4889073;29;21035;-74
2021/11/19 02:07:05;;;;;;;1.60;1.27;;;10.30;98.20;;;;;;4896048;29;20519;-74
2021/11/19 02:09:40;;;;;;;1.60;1.10;;;10.30;98.20;;;;;;4889612;29;20516;-74
2021/11/19 02:12:27;;;;;;;1.60;1.13;;;10.30;98.20;;;;;;4894337;29;20781;-74
2021/11/19 02:15:01;;;;;;;1.60;1.20;;;10.30;98.20;;;;;;4881577;29;20464;-76
2021/11/19 02:17:29;;;;;;;1.60;1.20;;;10.30;98.20;;;;;;4889652;29;20469;-76
2021/11/19 02:19:58;;;;;;;1.60;1.10;;;10.30;98.20;;;;;;4895719;29;20467;-74
2021/11/19 02:22:28;;;;;;;1.60;1.20;;;10.30;98.20;;;;;;4895640;29;21001;-74
2021/11/19 02:25:01;;;;;;;1.60;1.20;;;10.30;98.20;;;;;;4894027;29;20820;-76
2021/11/19 02:27:33;;;;;;;1.60;1.20;;;10.30;98.20;;;;;;4885159;29;20472;-74
2021/11/19 02:30:05;;;;;;;1.60;1.17;;;10.30;98.20;;;;;;4894066;29;20497;-74
2021/11/19 02:32:37;;;;;;;1.60;1.10;;;10.30;98.20;;;;;;4897099;29;20494;-73
2021/11/19 02:35:06;;;;;;;1.60;1.10;;;10.30;98.20;;;;;;4894973;29;20469;-74
2021/11/19 02:37:38;;;;;;;1.60;1.10;;;10.30;98.20;;;;;;4895362;29;20473;-74
2021/11/19 02:40:09;;;;;;;1.60;1.20;;;10.30;98.20;;;;;;4895074;29;20469;-74
2021/11/19 02:42:41;;;;;;;1.60;1.20;;;10.30;98.20;;;;;;4887208;29;21136;-76
2021/11/19 02:45:12;;;;;;;1.60;1.20;;;10.30;98.20;;;;;;4875944;29;20473;-74
2021/11/19 02:47:39;;;;;;;1.60;1.10;;;10.30;98.20;;;;;;4872555;29;20471;-74
2021/11/19 02:50:07;;;;;;;1.60;1.20;;;10.30;98.20;;;;;;4884970;29;20501;-74
2021/11/19 02:52:37;;;;;;;1.60;1.20;;;10.30;98.20;;;;;;4884912;29;20491;-74
2021/11/19 02:55:08;;;;;;;1.60;1.13;;;10.30;98.20;;;;;;4870640;29;20479;-74
2021/11/19 02:57:36;;;;;;;1.60;1.20;;;10.30;98.20;;;;;;4879195;29;20974;-74
2021/11/19 03:00:08;;;;;;;1.60;1.10;;;10.30;98.20;;;;;;4880536;29;20477;-74
2021/11/19 03:02:35;;;;;;;1.60;1.10;;;10.20;98.20;;;;;;4894699;29;20489;-76
2021/11/19 03:05:13;;;;;;;1.60;1.10;;;10.20;98.20;;;;;;4885151;29;21008;-76
2021/11/19 03:07:40;;;;;;;1.60;1.20;;;10.20;98.20;;;;;;4894962;29;20473;-73
2021/11/19 03:10:11;;;;;;;1.60;1.13;;;10.20;98.20;;;;;;4894341;29;20873;-73
2021/11/19 03:12:39;;;;;;;1.60;1.10;;;10.20;98.20;;;;;;4890063;29;20504;-75
2021/11/19 03:15:12;;;;;;;1.60;1.10;;;10.20;98.20;;;;;;4878924;29;20469;-75
2021/11/19 03:17:39;;;;;;;1.60;1.20;;;10.10;98.20;;;;;;4892339;29;20613;-75
2021/11/19 03:20:09;;;;;;;1.60;1.10;;;10.10;98.20;;;;;;4892197;29;20469;-75
2021/11/19 03:22:36;;;;;;;1.60;1.20;;;10.10;98.20;;;;;;4894462;29;20880;-75
2021/11/19 03:25:05;;;;;;;1.60;1.20;;;10.10;98.20;;;;;;4892328;29;20473;-75
2021/11/19 03:27:32;;;;;;;1.60;1.10;;;10.10;98.20;;;;;;4888548;29;20976;-75
2021/11/19 03:30:01;;;;;;;1.60;1.10;;;10.10;98.20;;;;;;4892007;29;20507;-75
2021/11/19 03:32:31;;;;;;;1.60;1.10;;;10.10;98.20;;;;;;4894601;29;20520;-75
2021/11/19 03:34:59;;;;;;;1.60;1.20;;;10.10;98.20;;;;;;4893894;29;20481;-75
2021/11/19 03:37:27;;;;;;;1.60;1.10;;;10.10;98.20;;;;;;4894495;29;20954;-75
2021/11/19 03:39:54;;;;;;;1.60;1.20;;;10.10;98.20;;;;;;4893552;29;20465;-75
2021/11/19 03:42:23;;;;;;;1.60;1.20;;;10.10;98.20;;;;;;4890480;29;20494;-75
2021/11/19 03:44:55;;;;;;;1.60;1.20;;;10.10;98.20;;;;;;4881786;29;20972;-75
2021/11/19 03:47:27;;;;;;;1.60;1.27;;;10.10;98.20;;;;;;4892365;29;20474;-75
2021/11/19 03:49:54;;;;;;;1.60;1.20;;;10.10;98.20;;;;;;4893675;29;20497;-75
2021/11/19 03:52:25;;;;;;;1.60;1.10;;;10.10;98.20;;;;;;4893162;29;20493;-75
2021/11/19 03:54:56;;;;;;;1.60;1.20;;;10.10;98.20;;;;;;4888436;29;20967;-75
2021/11/19 03:57:24;;;;;;;1.60;1.10;;;10.10;98.20;;;;;;4888820;29;20845;-76
2021/11/19 03:59:52;;;;;;;1.60;1.10;;;10.10;98.20;;;;;;4889134;29;20457;-76
2021/11/19 04:02:20;;;;;;;1.60;1.10;;;10.10;98.20;;;;;;4893054;29;20490;-76
2021/11/19 04:04:49;;;;;;;1.60;1.20;;;10.10;98.20;;;;;;4886407;29;20466;-75
2021/11/19 04:07:18;;;;;;;1.60;1.20;;;10.10;98.20;;;;;;4893478;29;20472;-74
2021/11/19 04:09:46;;;;;;;1.60;1.13;;;10.10;98.20;;;;;;4888419;29;20996;-75
2021/11/19 04:12:14;;;;;;;1.60;1.10;;;10.10;98.20;;;;;;4891712;29;20691;-76
2021/11/19 04:14:41;;;;;;;1.60;1.10;;;10.10;98.20;;;;;;4874099;29;20501;-76
2021/11/19 04:17:08;;;;;;;1.60;1.20;;;10.10;98.20;;;;;;4891866;29;20850;-75
2021/11/19 04:19:35;;;;;;;1.60;1.10;;;10.10;98.20;;;;;;4893557;29;20478;-75
2021/11/19 04:22:06;;;;;;;1.60;1.20;;;10.10;98.20;;;;;;4893334;29;20489;-75
2021/11/19 04:24:41;;;;;;;1.60;1.10;;;10.10;98.20;;;;;;4902224;23;20502;-75
2021/11/19 04:27:09;;;;;;;1.60;1.20;;;10.10;98.20;;;;;;4872141;29;20475;-76
2021/11/19 04:29:36;;;;;;;1.60;1.10;;;10.10;98.20;;;;;;4894546;29;21026;-76
2021/11/19 04:32:04;;;;;;;1.60;1.10;;;10.10;98.20;;;;;;4893956;29;20478;-75
2021/11/19 04:34:32;;;;;;;1.70;1.30;;;10.20;98.20;;;;;;4887934;29;20494;-78
2021/11/19 04:36:58;;;;;;;1.60;1.20;;;10.20;98.20;;;;;;4877443;29;20474;-77
2021/11/19 04:39:27;;;;;;;1.60;1.10;;;10.20;98.20;;;;;;4876147;29;20466;-76
2021/11/19 04:41:54;;;;;;;1.60;1.20;;;10.20;98.20;;;;;;4877344;29;20470;-79
2021/11/19 04:44:21;;;;;;;1.60;1.20;;;10.20;98.20;;;;;;4868813;29;20492;-77
2021/11/19 04:46:48;;;;;;;1.60;1.10;;;10.20;98.20;;;;;;4883335;29;20466;-78
2021/11/19 04:49:16;;;;;;;1.60;1.13;;;10.20;98.20;;;;;;4877854;29;20490;-77
2021/11/19 04:51:46;;;;;;;1.60;1.20;;;10.10;98.20;;;;;;4875929;29;20652;-76
2021/11/19 04:54:13;;;;;;;1.60;1.20;;;10.20;98.20;;;;;;4884090;29;20497;-77
2021/11/19 04:56:42;;;;;;;1.60;1.20;;;10.20;98.20;;;;;;4876687;29;20485;-76
2021/11/19 04:59:10;;;;;;;1.60;1.20;;;10.20;98.20;;;;;;4872212;29;20469;-75
2021/11/19 05:01:40;;;;;;;1.63;1.20;;;10.20;98.20;;;;;;4891087;29;20961;-77
2021/11/19 05:04:08;;;;;;;1.63;1.30;;;10.20;98.20;;;;;;4879733;29;20497;-76
2021/11/19 05:06:36;;;;;;;1.60;1.10;;;10.20;98.20;;;;;;4898525;29;20477;-77
2021/11/19 05:09:05;;;;;;;1.60;1.10;;;10.20;98.20;;;;;;4877186;29;20507;-76
2021/11/19 05:11:36;;;;;;;1.60;1.13;;;10.20;98.20;;;;;;4880976;29;20470;-77
2021/11/19 05:14:04;;;;;;;1.60;1.20;;;10.20;98.20;;;;;;4875563;29;20482;-81
2021/11/19 05:16:32;;;;;;;1.60;1.20;;;10.20;98.20;;;;;;4896732;29;20473;-80
2021/11/19 05:19:00;;;;;;;1.60;1.20;;;10.20;98.20;;;;;;4885432;29;20502;-78
2021/11/19 05:21:27;;;;;;;1.60;1.13;;;10.20;98.20;;;;;;4892546;29;20637;-78
2021/11/19 05:23:54;;;;;;;1.60;1.20;;;10.20;98.20;;;;;;4901658;29;20592;-79
2021/11/19 05:26:21;;;;;;;1.70;1.40;;;10.20;98.20;;;;;;4903143;29;20469;-77
2021/11/19 05:28:49;;;;;;;1.60;1.20;;;10.20;98.20;;;;;;4901582;29;20475;-76
2021/11/19 05:31:18;;;;;;;1.60;1.23;;;10.20;98.20;;;;;;4901680;29;20529;-78
2021/11/19 05:33:46;;;;;;;1.60;1.30;;;10.20;98.20;;;;;;4902739;29;20521;-79
2021/11/19 05:36:13;;;;;;;1.60;1.20;;;10.20;98.20;;;;;;4900293;29;20950;-76
2021/11/19 05:38:41;;;;;;;1.60;1.20;;;10.20;98.20;;;;;;4896064;29;20471;-77
2021/11/19 05:41:10;;;;;;;1.60;1.20;;;10.20;98.20;;;;;;4884023;29;20748;-76
2021/11/19 05:43:39;;;;;;;1.60;1.30;;;10.20;98.20;;;;;;4883951;29;20490;-77
2021/11/19 05:46:06;;;;;;;1.60;1.20;;;10.20;98.20;;;;;;4883190;29;20474;-78
2021/11/19 05:48:35;;;;;;;1.60;1.10;;;10.20;98.20;;;;;;4876033;29;20463;-76
2021/11/19 05:51:02;;;;;;;1.60;1.20;;;10.20;98.20;;;;;;4863648;29;20578;-77
2021/11/19 05:53:29;;;;;;;1.60;1.30;;;10.20;98.20;;;;;;4863040;29;20493;-76
2021/11/19 05:55:56;;;;;;;2.10;1.87;;;10.20;98.20;;;;;;4862696;29;20471;-76
2021/11/19 05:58:23;;;;;;;1.60;1.10;;;10.20;98.20;;;;;;4863831;29;20467;-76
2021/11/19 06:00:55;;;;;;;1.60;1.20;;;10.20;98.20;;;;;;4863808;29;20554;-76
2021/11/19 06:03:22;;;;;;;1.60;1.20;;;10.20;98.20;;;;;;4861212;29;20506;-75
2021/11/19 06:05:51;;;;;;;1.60;1.10;;;10.20;98.20;;;;;;4861882;29;20473;-78
2021/11/19 06:08:19;;;;;;;1.60;1.13;;;10.20;98.20;;;;;;4873987;29;20514;-75
2021/11/19 06:10:51;;;;;;;1.60;1.10;;;10.20;98.20;;;;;;4881085;29;20501;-76
2021/11/19 06:13:22;;;;;;;1.60;1.20;;;10.20;98.20;;;;;;4877972;29;20513;-76
2021/11/19 06:15:52;;;;;;;1.67;1.30;;;10.20;98.20;;;;;;4892352;29;20480;-76
2021/11/19 06:18:22;;;;;;;1.60;1.13;;;10.20;98.20;;;;;;4896904;29;20793;-75
2021/11/19 06:20:55;;;;;;;1.60;1.20;;;10.20;98.20;;;;;;4896195;29;20481;-75
2021/11/19 06:23:25;;;;;;;1.60;1.30;;;10.20;98.20;;;;;;4872019;29;20495;-77
2021/11/19 06:25:53;;;;;;;1.60;1.10;;;10.20;98.20;;;;;;4859918;29;20561;-77
2021/11/19 06:28:23;;;;;;;1.60;1.10;;;10.20;98.20;;;;;;4871001;29;20466;-76
2021/11/19 06:30:51;;;;;;;1.60;1.20;;;10.20;98.20;;;;;;4871341;29;21035;-77
2021/11/19 06:33:19;;;;;;;1.60;1.10;;;10.20;98.20;;;;;;4881368;29;20502;-76
2021/11/19 06:35:46;;;;;;;1.60;1.10;;;10.30;98.20;;;;;;4895840;29;20477;-75
2021/11/19 06:38:14;;;;;;;1.60;1.10;;;10.30;98.20;;;;;;4896916;29;20787;-76
2021/11/19 06:40:41;;;;;;;1.60;1.10;;;10.30;98.20;;;;;;4887280;29;20471;-77
2021/11/19 06:43:09;;;;;;;1.60;1.10;;;10.30;98.20;;;;;;4877398;29;20481;-74
2021/11/19 06:45:36;;;;;;;1.60;1.10;;;10.30;98.20;;;;;;4869789;29;20973;-76
2021/11/19 06:48:06;;;;;;;1.60;1.10;;;10.30;98.20;;;;;;4878248;29;20796;-76
2021/11/19 06:50:34;;;;;;;1.60;1.10;;;10.30;98.20;;;;;;4887509;29;20557;-78
2021/11/19 06:53:02;;;;;;;1.60;1.20;;;10.30;98.20;;;;;;4890404;29;20565;-76
2021/11/19 06:55:30;;;;;;;1.60;1.20;;;10.30;98.20;;;;;;4872099;29;20471;-74
2021/11/19 06:57:58;;;;;;;1.60;1.20;;;10.30;98.20;;;;;;4878033;29;20504;-76
2021/11/19 07:00:29;;;;;;;1.60;1.20;;;10.30;98.20;;;;;;4888025;29;20478;-77
2021/11/19 07:02:57;;;;;;;1.60;1.10;;;10.30;98.20;;;;;;4880790;29;20491;-75
2021/11/19 07:05:26;;;;;;;1.60;1.20;;;10.30;98.20;;;;;;4887232;29;20471;-77
2021/11/19 07:07:54;;;;;;;1.60;1.20;;;10.30;98.20;;;;;;4889946;29;20496;-77
2021/11/19 07:10:32;;;;;;;1.60;1.17;;;10.30;98.20;;;;;;4886609;29;20498;-76
2021/11/19 07:13:01;;;;;;;1.60;1.20;;;10.30;98.20;;;;;;4885183;29;20513;-77
2021/11/19 07:15:28;;;;;;;1.60;1.20;;;10.30;98.20;;;;;;4879647;29;20475;-76
2021/11/19 07:17:59;;;;;;;1.60;1.20;;;10.30;98.20;;;;;;4886687;29;20848;-76
2021/11/19 07:20:29;;;;;;;1.60;1.20;;;10.30;98.20;;;;;;4887612;29;20542;-77
2021/11/19 07:22:58;;;;;;;1.70;1.40;;;10.30;98.20;;;;;;4881082;29;20703;-77
2021/11/19 07:25:28;;;;;;;1.60;1.17;;;10.30;98.20;;;;;;4882520;29;20478;-76
2021/11/19 07:27:59;;;;;;;1.60;1.10;;;10.30;98.20;;;;;;4879591;29;20470;-76
2021/11/19 07:30:28;;;;;;;1.60;1.10;;;10.30;98.20;;;;;;4880628;29;20486;-76
2021/11/19 07:32:56;;;;;;;1.60;1.20;;;10.30;98.20;;;;;;4881237;29;20524;-75
2021/11/19 07:35:23;;;;;;;1.60;1.20;;;10.30;98.20;;;;;;4895682;29;20851;-76
2021/11/19 07:37:49;;;;;;;1.60;1.10;;;10.30;98.20;;;;;;4895561;29;20529;-73
2021/11/19 07:40:19;;;;;;;1.60;1.10;;;10.30;98.20;;;;;;4894782;29;20466;-74
2021/11/19 07:42:46;;;;;;;1.60;1.20;;;10.40;98.20;;;;;;4877330;29;20473;-74
2021/11/19 07:45:15;;;;;;;1.60;1.20;;;10.40;98.20;;;;;;4876600;29;20497;-74
2021/11/19 07:47:43;;;;;;;1.60;1.20;;;10.40;98.20;;;;;;4876274;29;20535;-73
2021/11/19 07:50:12;;;;;;;1.60;1.10;;;10.40;98.20;;;;;;4876720;29;20573;-76
2021/11/19 07:52:40;;;;;;;1.60;1.13;;;10.40;98.20;;;;;;4878540;29;20497;-77
2021/11/19 07:55:08;;;;;;;1.60;1.20;;;10.40;98.20;;;;;;4870642;29;20466;-75
2021/11/19 07:57:36;;;;;;;1.60;1.20;;;10.40;98.20;;;;;;4877462;29;20506;-75
2021/11/19 08:00:08;;;;;;;1.60;1.10;;;10.40;98.20;;;;;;4877026;29;20820;-74
2021/11/19 08:02:36;;;;;;;1.60;1.17;;;10.40;98.20;;;;;;4875826;29;20629;-74
2021/11/19 08:05:05;;;;;;;1.60;1.10;;;10.50;98.20;;;;;;4875689;29;20478;-74
2021/11/19 08:07:32;;;;;;;1.60;1.20;;;10.50;98.20;;;;;;4876269;29;20531;-74
2021/11/19 08:10:01;;;;;;;1.60;1.10;;;10.50;98.20;;;;;;4876291;29;20542;-74
2021/11/19 08:12:28;;;;;;;1.60;1.10;;;10.50;98.20;;;;;;4876874;29;20558;-74
2021/11/19 08:14:55;;;;;;;1.60;1.10;;;10.50;98.20;;;;;;4875565;29;20491;-74
2021/11/19 08:17:26;;;;;;;1.60;1.20;;;10.50;98.20;;;;;;4876524;29;20481;-74
2021/11/19 08:19:55;;;;;;;1.60;1.10;;;10.60;98.20;;;;;;4873706;29;20461;-74
2021/11/19 08:22:22;;;;;;;1.60;1.20;;;10.60;98.20;;;;;;4873532;29;20474;-74
2021/11/19 08:24:50;;;;;;;1.63;1.20;;;10.60;98.20;;;;;;4873062;29;20514;-74
2021/11/19 08:27:19;;;;;;;1.60;1.10;;;10.60;98.20;;;;;;4872943;29;20557;-75
2021/11/19 08:29:49;;;;;;;1.60;1.20;;;10.60;98.20;;;;;;4873682;29;20974;-76
2021/11/19 08:32:18;;;;;;;1.67;1.33;;;10.60;98.20;;;;;;4874600;29;20459;-76
2021/11/19 08:34:45;;;;;;;1.60;1.20;;;10.60;98.20;;;;;;4873391;29;20490;-76
2021/11/19 08:37:13;;;;;;;3.50;1.87;;;10.70;98.20;;;;;;4875638;29;20911;-76
2021/11/19 08:39:40;;;;;;;1.60;1.10;;;10.70;98.20;;;;;;4864652;29;20569;-75
2021/11/19 08:42:10;;;;;;;1.60;1.20;;;10.70;98.20;;;;;;4873870;29;20485;-76
2021/11/19 08:44:38;;;;;;;1.60;1.10;;;10.70;98.20;;;;;;4869848;29;20502;-75
2021/11/19 08:47:05;;;;;;;2.03;1.53;;;10.70;98.20;;;;;;4854993;29;20483;-75
2021/11/19 08:49:34;;;;;;;1.60;1.10;;;10.70;98.20;;;;;;4854524;29;20475;-75
2021/11/19 08:52:02;;;;;;;1.60;1.10;;;10.80;98.20;;;;;;4853943;29;20491;-75
2021/11/19 08:54:30;;;;;;;1.60;1.10;;;10.80;98.20;;;;;;4854096;29;20495;-75
2021/11/19 08:57:04;;;;;;;1.60;1.20;;;10.80;98.20;;;;;;4873598;29;20521;-75
2021/11/19 08:59:33;;;;;;;1.60;1.10;;;10.80;98.20;;;;;;4890878;29;20941;-75
2021/11/19 09:02:02;;;;;;;1.60;1.20;;;10.90;98.20;;;;;;4875991;29;20463;-75
2021/11/19 09:04:29;;;;;;;1.63;1.20;;;10.90;98.20;;;;;;4872544;29;20498;-75
2021/11/19 09:06:57;;;;;;;1.60;1.10;;;10.90;98.20;;;;;;4875166;29;20466;-75
2021/11/19 09:09:25;;;;;;;1.60;1.10;;;10.90;98.20;;;;;;4866064;29;20474;-75
2021/11/19 09:11:54;;;;;;;1.60;1.13;;;11.00;98.20;;;;;;4866289;29;20497;-75
2021/11/19 09:14:23;;;;;;;1.60;1.10;;;11.00;98.20;;;;;;4870109;29;20505;-75
2021/11/19 09:17:03;;;;;;;1.60;1.20;;;11.00;98.20;;;;;;4873073;29;20982;-75
2021/11/19 09:19:35;;;;;;;1.60;1.10;;;11.00;98.20;;;;;;4872649;29;20462;-75
2021/11/19 09:22:15;;;;;;;1.60;1.20;;;11.00;98.20;;;;;;4868122;29;20468;-75
2021/11/19 09:24:42;;;;;;;1.60;1.10;;;11.00;98.20;;;;;;4868399;29;20502;-75
2021/11/19 09:27:14;;;;;;;1.63;1.17;;;11.10;98.20;;;;;;4854136;29;20477;-76
2021/11/19 09:29:45;;;;;;;1.60;1.10;;;11.10;98.20;;;;;;4862693;29;20475;-76
2021/11/19 09:32:13;;;;;;;1.60;1.10;;;11.10;98.20;;;;;;4869339;29;20505;-75
2021/11/19 09:34:42;;;;;;;1.60;1.10;;;11.10;98.20;;;;;;4861417;29;20580;-76
2021/11/19 09:37:11;;;;;;;1.60;1.10;;;11.20;98.20;;;;;;4867736;29;20546;-75
2021/11/19 09:39:39;;;;;;;1.60;1.10;;;11.20;98.20;;;;;;4873641;29;20968;-76
2021/11/19 09:42:17;;;;;;;1.60;1.10;;;11.20;98.20;;;;;;4873347;29;20486;-76
2021/11/19 09:45:13;;;;;;;1.60;1.10;;;11.20;98.20;;;;;;4871472;29;20505;-74
2021/11/19 09:48:08;;;;;;;1.60;1.10;;;11.20;98.20;;;;;;4867288;29;20466;-75
2021/11/19 09:51:17;;;;;;;1.60;1.10;;;11.20;98.20;;;;;;4877004;29;20501;-75
2021/11/19 09:54:25;;;;;;;1.60;1.10;;;11.20;98.20;;;;;;4882800;29;20933;-75
2021/11/19 09:57:44;;;;;;;1.60;1.10;;;11.30;98.20;;;;;;4874435;29;20567;-75
2021/11/19 10:00:21;;;;;;;1.60;1.10;;;11.30;98.20;;;;;;4809268;29;20602;-75
2021/11/19 10:03:14;;;;;;;1.60;1.10;;;11.30;98.20;;;;;;4806238;29;20503;-75
2021/11/19 10:05:57;;;;;;;1.60;1.07;;;11.30;98.20;;;;;;4853260;29;20474;-75
2021/11/19 10:08:43;;;;;;;1.60;1.10;;;11.40;98.20;;;;;;4885259;29;20585;-75
2021/11/19 10:11:18;;;;;;;1.60;1.20;;;11.40;98.20;;;;;;4883074;29;20500;-76
2021/11/19 10:14:17;;;;;;;1.60;1.10;;;11.40;98.20;;;;;;4868786;29;20493;-75
2021/11/19 10:16:59;;;;;;;1.67;1.27;;;11.40;98.20;;;;;;4870451;29;20873;-75
2021/11/19 10:19:29;;;;;;;1.60;1.03;;;11.40;98.20;;;;;;4874642;29;20470;-75
2021/11/19 10:22:08;;;;;;;1.60;1.10;;;11.40;98.20;;;;;;4886405;29;20465;-75
2021/11/19 10:24:42;;;;;;;1.60;1.10;;;11.40;98.20;;;;;;4884129;29;20517;-76
2021/11/19 10:27:12;;;;;;;1.60;1.10;;;11.40;98.20;;;;;;4904025;23;20493;-75
2021/11/19 10:29:44;;;;;;;1.63;1.10;;;11.40;98.20;;;;;;4890792;29;20470;-75
2021/11/19 10:32:15;;;;;;;1.60;1.10;;;11.50;98.20;;;;;;4893998;29;20492;-73
2021/11/19 10:34:47;;;;;;;1.60;1.10;;;11.50;98.20;;;;;;4900538;29;20870;-76
2021/11/19 10:37:43;;;;;;;1.60;1.10;;;11.50;98.20;;;;;;4892498;29;20561;-76
2021/11/19 10:40:39;;;;;;;2.30;1.83;;;11.50;98.20;;;;;;4892382;29;20965;-76
2021/11/19 10:43:40;;;;;;;1.60;1.10;;;11.50;98.20;;;;;;4892100;29;20478;-76
2021/11/19 10:46:25;;;;;;;1.63;1.20;;;11.50;98.20;;;;;;4884990;29;20500;-75
2021/11/19 10:49:20;;;;;;;1.60;1.10;;;11.50;98.20;;;;;;4894804;29;20478;-76
2021/11/19 10:52:17;;;;;;;1.60;1.10;;;11.50;98.20;;;;;;4892783;29;20501;-79
2021/11/19 10:55:16;;;;;;;1.60;1.10;;;11.60;98.20;;;;;;4891759;29;20477;-76
2021/11/19 10:58:11;;;;;;;1.60;1.10;;;11.60;98.20;;;;;;4900056;29;20493;-74
2021/11/19 11:00:54;;;;;;;1.60;1.00;;;11.60;98.20;;;;;;4889487;29;20623;-73
2021/11/19 11:03:23;;;;;;;1.60;1.07;;;11.60;98.20;;;;;;4886952;29;20472;-76
2021/11/19 11:05:59;;;;;;;1.60;1.10;;;11.60;98.20;;;;;;4881256;29;20494;-74
2021/11/19 11:08:30;;;;;;;1.60;1.10;;;11.60;98.20;;;;;;4883045;29;20472;-75
2021/11/19 11:11:00;;;;;;;1.60;1.10;;;11.60;98.20;;;;;;4890924;29;20566;-75
2021/11/19 11:13:35;;;;;;;1.60;1.20;;;11.60;98.20;;;;;;4886447;29;20977;-76
2021/11/19 11:16:06;;;;;;;1.60;1.10;;;11.60;98.20;;;;;;4881018;29;20757;-75
2021/11/19 11:18:37;;;;;;;1.60;1.00;;;11.60;98.20;;;;;;4890200;29;20450;-76
2021/11/19 11:21:26;;;;;;;1.60;1.10;;;11.60;98.20;;;;;;4890355;29;20756;-75
2021/11/19 11:24:09;;;;;;;1.60;1.10;;;11.60;98.20;;;;;;4887438;29;20476;-77
2021/11/19 11:26:44;;;;;;;1.60;1.10;;;11.70;98.20;;;;;;4884017;29;20505;-74
2021/11/19 11:29:49;;;;;;;1.60;1.20;;;11.70;98.20;;;;;;4887901;29;20473;-74
2021/11/19 11:32:26;;;;;;;1.60;1.10;;;11.70;98.20;;;;;;4888221;29;20519;-76
2021/11/19 11:35:05;;;;;;;1.60;1.10;;;11.70;98.20;;;;;;4888681;29;20479;-76
2021/11/19 11:37:52;;;;;;;1.60;1.10;;;11.70;98.20;;;;;;4890204;29;20493;-78
2021/11/19 11:40:42;;;;;;;1.60;1.10;;;11.80;98.20;;;;;;4885283;29;20530;-77
2021/11/19 11:43:26;;;;;;;1.70;1.30;;;11.80;98.20;;;;;;4884756;29;20894;-77
2021/11/19 11:45:55;;;;;;;1.60;1.10;;;11.80;98.20;;;;;;4872540;29;20493;-74
2021/11/19 11:48:31;;;;;;;1.60;1.10;;;11.80;98.20;;;;;;4887423;29;20465;-75
2021/11/19 11:51:06;;;;;;;1.60;1.10;;;11.80;98.20;;;;;;4874661;29;20496;-74
2021/11/19 11:53:49;;;;;;;1.60;1.03;;;11.80;98.20;;;;;;4890292;29;20469;-74
2021/11/19 11:56:22;;;;;;;1.60;1.10;;;11.80;98.20;;;;;;4877738;29;20984;-74
2021/11/19 11:59:06;;;;;;;1.60;1.10;;;11.80;98.20;;;;;;4898939;29;20473;-76
2021/11/19 12:01:42;;;;;;;1.60;1.10;;;11.80;98.20;;;;;;4875870;29;20497;-76
2021/11/19 12:04:16;;;;;;;1.60;1.10;;;11.90;98.20;;;;;;4897532;29;20482;-77
2021/11/19 12:06:51;;;;;;;1.70;1.23;;;11.90;98.20;;;;;;4883987;29;20505;-77
2021/11/19 12:09:31;;;;;;;1.60;1.00;;;12.00;98.20;;;;;;4893477;29;20963;-76
2021/11/19 12:12:28;;;;;;;1.60;1.10;;;12.00;98.20;;;;;;4883776;29;20551;-76
2021/11/19 12:15:02;;;;;;;1.60;1.10;;;12.10;98.20;;;;;;4888704;29;20477;-76
2021/11/19 12:17:37;;;;;;;1.60;1.10;;;12.10;98.20;;;;;;4891519;29;20496;-76
2021/11/19 12:20:29;;;;;;;1.60;1.10;;;12.10;98.20;;;;;;4886654;29;20831;-77
2021/11/19 12:23:11;;;;;;;1.60;1.10;;;12.20;98.20;;;;;;4882261;29;20496;-77
2021/11/19 12:26:22;;;;;;;1.60;1.10;;;12.20;98.20;;;;;;4887802;29;20984;-77
2021/11/19 12:29:00;;;;;;;1.60;1.07;;;12.20;98.20;;;;;;4878183;29;20489;-75
2021/11/19 12:31:33;;;;;;;1.80;1.43;;;12.30;98.20;;;;;;4880277;29;20963;-77
2021/11/19 12:34:21;;;;;;;1.60;1.10;;;12.30;98.20;;;;;;4904144;29;20851;-78
2021/11/19 12:36:55;;;;;;;1.60;1.10;;;12.30;98.20;;;;;;4882975;29;20496;-76
2021/11/19 12:39:22;;;;;;;1.63;1.10;;;12.30;98.20;;;;;;4900589;29;20496;-76
2021/11/19 12:42:00;;;;;;;1.60;1.00;;;12.40;98.20;;;;;;4888809;29;20499;-77
2021/11/19 12:44:37;;;;;;;1.60;1.07;;;12.40;98.20;;;;;;4890395;29;20473;-78
2021/11/19 12:47:34;;;;;;;1.60;1.10;;;12.40;98.20;;;;;;4882325;29;21031;-75
2021/11/19 12:50:16;;;;;;;1.60;1.00;;;12.50;98.20;;;;;;4889496;29;20475;-77
2021/11/19 12:52:46;;;;;;;1.60;1.10;;;12.40;98.20;;;;;;4891543;29;20492;-76
2021/11/19 12:55:30;;;;;;;1.60;1.00;;;12.50;98.20;;;;;;4884400;29;20477;-75
2021/11/19 12:58:29;;;;;;;1.60;1.10;;;12.50;98.20;;;;;;4876208;29;20620;-76
2021/11/19 13:01:37;;;;;;;1.63;1.10;;;12.50;98.20;;;;;;4837680;29;20474;-76
2021/11/19 13:04:23;;;;;;;1.60;1.10;;;12.50;98.20;;;;;;4898936;29;21208;-76
2021/11/19 13:06:58;;;;;;;1.70;1.20;;;12.50;98.20;;;;;;4886465;29;20496;-76
2021/11/19 13:09:53;;;;;;;1.60;1.10;;;12.50;98.20;;;;;;4896893;29;21047;-74
2021/11/19 13:12:30;;;;;;;1.70;1.37;;;12.50;98.20;;;;;;4879806;29;20492;-74
2021/11/19 13:15:30;;;;;;;1.60;1.10;;;12.50;98.20;;;;;;4894854;29;20533;-77